sensor_id;sensor_type;location;lat;lon;timestamp;P1;durP1;ratioP1;P2;durP2;ratioP2
58015;SDS011;43809;52.110;20.964;2023-04-28T00:00:57;5.18;;;2.92;;
58015;SDS011;43809;52.110;20.964;2023-04-28T00:02:57;5.35;;;3.20;;
58015;SDS011;43809;52.110;20.964;2023-04-28T00:04:58;6.15;;;3.20;;
58015;SDS011;43809;52.110;20.964;2023-04-28T00:06:58;6.10;;;3.25;;
58015;SDS011;43809;52.110;20.964;2023-04-28T00:08:58;6.80;;;3.72;;
58015;SDS011;43809;52.110;20.964;2023-04-28T00:10:59;6.88;;;3.65;;
58015;SDS011;43809;52.110;20.964;2023-04-28T00:13:00;8.38;;;4.20;;
58015;SDS011;43809;52.110;20.964;2023-04-28T00:15:00;7.93;;;4.25;;
58015;SDS011;43809;52.110;20.964;2023-04-28T00:17:01;6.57;;;3.67;;
58015;SDS011;43809;52.110;20.964;2023-04-28T00:19:02;6.03;;;3.53;;
58015;SDS011;43809;52.110;20.964;2023-04-28T00:21:02;5.60;;;3.08;;
58015;SDS011;43809;52.110;20.964;2023-04-28T00:23:02;5.78;;;3.00;;
58015;SDS011;43809;52.110;20.964;2023-04-28T00:25:03;6.15;;;3.30;;
58015;SDS011;43809;52.110;20.964;2023-04-28T00:27:03;5.25;;;3.03;;
58015;SDS011;43809;52.110;20.964;2023-04-28T00:29:04;4.75;;;2.90;;
58015;SDS011;43809;52.110;20.964;2023-04-28T00:31:11;4.70;;;2.88;;
58015;SDS011;43809;52.110;20.964;2023-04-28T00:33:11;3.90;;;2.55;;
58015;SDS011;43809;52.110;20.964;2023-04-28T00:35:12;6.28;;;3.45;;
58015;SDS011;43809;52.110;20.964;2023-04-28T00:37:12;5.75;;;3.38;;
58015;SDS011;43809;52.110;20.964;2023-04-28T00:39:12;5.53;;;3.28;;
58015;SDS011;43809;52.110;20.964;2023-04-28T00:41:13;5.35;;;3.70;;
58015;SDS011;43809;52.110;20.964;2023-04-28T00:43:14;5.70;;;3.90;;
58015;SDS011;43809;52.110;20.964;2023-04-28T00:45:14;8.75;;;4.50;;
58015;SDS011;43809;52.110;20.964;2023-04-28T00:47:16;7.15;;;3.60;;
58015;SDS011;43809;52.110;20.964;2023-04-28T00:49:16;6.90;;;3.67;;
58015;SDS011;43809;52.110;20.964;2023-04-28T00:51:17;8.20;;;3.60;;
58015;SDS011;43809;52.110;20.964;2023-04-28T00:53:17;7.78;;;3.67;;
58015;SDS011;43809;52.110;20.964;2023-04-28T00:55:17;9.73;;;4.72;;
58015;SDS011;43809;52.110;20.964;2023-04-28T00:57:18;13.15;;;6.82;;
58015;SDS011;43809;52.110;20.964;2023-04-28T00:59:18;11.98;;;7.13;;
58015;SDS011;43809;52.110;20.964;2023-04-28T01:01:18;16.27;;;9.20;;
58015;SDS011;43809;52.110;20.964;2023-04-28T01:03:18;13.65;;;8.05;;
58015;SDS011;43809;52.110;20.964;2023-04-28T01:05:19;17.13;;;8.77;;
58015;SDS011;43809;52.110;20.964;2023-04-28T01:07:19;16.23;;;7.85;;
58015;SDS011;43809;52.110;20.964;2023-04-28T01:09:20;13.10;;;7.53;;
58015;SDS011;43809;52.110;20.964;2023-04-28T01:11:20;13.38;;;7.53;;
58015;SDS011;43809;52.110;20.964;2023-04-28T01:13:21;13.50;;;7.22;;
58015;SDS011;43809;52.110;20.964;2023-04-28T01:15:21;13.55;;;7.80;;
58015;SDS011;43809;52.110;20.964;2023-04-28T01:17:21;14.05;;;8.63;;
58015;SDS011;43809;52.110;20.964;2023-04-28T01:19:22;18.27;;;8.25;;
58015;SDS011;43809;52.110;20.964;2023-04-28T01:21:26;16.15;;;7.70;;
58015;SDS011;43809;52.110;20.964;2023-04-28T01:23:35;17.98;;;8.30;;
58015;SDS011;43809;52.110;20.964;2023-04-28T01:25:35;13.10;;;7.82;;
58015;SDS011;43809;52.110;20.964;2023-04-28T01:27:35;13.70;;;7.55;;
58015;SDS011;43809;52.110;20.964;2023-04-28T01:29:35;13.88;;;7.53;;
58015;SDS011;43809;52.110;20.964;2023-04-28T01:31:35;12.45;;;7.90;;
58015;SDS011;43809;52.110;20.964;2023-04-28T01:36:15;13.82;;;6.85;;
58015;SDS011;43809;52.110;20.964;2023-04-28T01:38:15;14.32;;;7.88;;
58015;SDS011;43809;52.110;20.964;2023-04-28T01:40:15;16.70;;;8.43;;
58015;SDS011;43809;52.110;20.964;2023-04-28T01:42:15;16.13;;;8.48;;
58015;SDS011;43809;52.110;20.964;2023-04-28T01:44:16;14.75;;;7.50;;
58015;SDS011;43809;52.110;20.964;2023-04-28T01:46:16;13.63;;;7.85;;
58015;SDS011;43809;52.110;20.964;2023-04-28T01:48:16;12.65;;;6.97;;
58015;SDS011;43809;52.110;20.964;2023-04-28T01:50:16;13.43;;;7.20;;
58015;SDS011;43809;52.110;20.964;2023-04-28T01:52:16;12.43;;;6.45;;
58015;SDS011;43809;52.110;20.964;2023-04-28T01:54:18;9.90;;;5.63;;
58015;SDS011;43809;52.110;20.964;2023-04-28T01:56:18;9.25;;;5.30;;
58015;SDS011;43809;52.110;20.964;2023-04-28T01:58:19;7.05;;;3.88;;
58015;SDS011;43809;52.110;20.964;2023-04-28T02:00:19;7.68;;;3.72;;
58015;SDS011;43809;52.110;20.964;2023-04-28T02:02:19;5.88;;;3.40;;
58015;SDS011;43809;52.110;20.964;2023-04-28T02:04:20;8.25;;;4.10;;
58015;SDS011;43809;52.110;20.964;2023-04-28T02:06:21;7.38;;;4.03;;
58015;SDS011;43809;52.110;20.964;2023-04-28T02:08:21;5.75;;;3.67;;
58015;SDS011;43809;52.110;20.964;2023-04-28T02:10:22;6.20;;;3.20;;
58015;SDS011;43809;52.110;20.964;2023-04-28T02:12:22;5.43;;;3.10;;
58015;SDS011;43809;52.110;20.964;2023-04-28T02:14:38;5.43;;;3.00;;
58015;SDS011;43809;52.110;20.964;2023-04-28T02:16:39;6.00;;;3.63;;
58015;SDS011;43809;52.110;20.964;2023-04-28T02:18:39;5.65;;;3.50;;
58015;SDS011;43809;52.110;20.964;2023-04-28T02:20:39;5.10;;;3.00;;
58015;SDS011;43809;52.110;20.964;2023-04-28T02:22:40;5.35;;;2.50;;
58015;SDS011;43809;52.110;20.964;2023-04-28T02:24:40;8.32;;;4.18;;
58015;SDS011;43809;52.110;20.964;2023-04-28T02:26:40;7.80;;;4.47;;
58015;SDS011;43809;52.110;20.964;2023-04-28T02:28:40;9.40;;;4.78;;
58015;SDS011;43809;52.110;20.964;2023-04-28T02:30:41;6.55;;;4.05;;
58015;SDS011;43809;52.110;20.964;2023-04-28T02:32:41;8.18;;;4.35;;
58015;SDS011;43809;52.110;20.964;2023-04-28T02:34:41;6.93;;;3.40;;
58015;SDS011;43809;52.110;20.964;2023-04-28T02:36:41;7.20;;;3.90;;
58015;SDS011;43809;52.110;20.964;2023-04-28T02:38:44;7.32;;;3.58;;
58015;SDS011;43809;52.110;20.964;2023-04-28T02:40:44;7.63;;;4.15;;
58015;SDS011;43809;52.110;20.964;2023-04-28T02:42:44;6.28;;;3.50;;
58015;SDS011;43809;52.110;20.964;2023-04-28T02:44:45;7.53;;;3.33;;
58015;SDS011;43809;52.110;20.964;2023-04-28T02:46:45;4.72;;;3.22;;
58015;SDS011;43809;52.110;20.964;2023-04-28T02:48:45;5.68;;;3.60;;
58015;SDS011;43809;52.110;20.964;2023-04-28T02:50:45;6.70;;;3.83;;
58015;SDS011;43809;52.110;20.964;2023-04-28T02:52:45;5.72;;;3.67;;
58015;SDS011;43809;52.110;20.964;2023-04-28T02:54:46;9.18;;;5.13;;
58015;SDS011;43809;52.110;20.964;2023-04-28T02:56:59;9.73;;;4.68;;
58015;SDS011;43809;52.110;20.964;2023-04-28T02:59:00;10.27;;;6.13;;
58015;SDS011;43809;52.110;20.964;2023-04-28T03:01:00;12.55;;;6.53;;
58015;SDS011;43809;52.110;20.964;2023-04-28T03:03:01;9.55;;;5.75;;
58015;SDS011;43809;52.110;20.964;2023-04-28T03:05:01;10.00;;;5.22;;
58015;SDS011;43809;52.110;20.964;2023-04-28T03:07:01;7.90;;;4.90;;
58015;SDS011;43809;52.110;20.964;2023-04-28T03:09:01;8.48;;;4.28;;
58015;SDS011;43809;52.110;20.964;2023-04-28T03:11:10;7.00;;;3.90;;
58015;SDS011;43809;52.110;20.964;2023-04-28T03:13:11;7.90;;;3.88;;
58015;SDS011;43809;52.110;20.964;2023-04-28T03:15:11;8.10;;;4.00;;
58015;SDS011;43809;52.110;20.964;2023-04-28T03:17:11;6.72;;;3.97;;
58015;SDS011;43809;52.110;20.964;2023-04-28T03:19:27;8.98;;;5.45;;
58015;SDS011;43809;52.110;20.964;2023-04-28T03:21:28;9.90;;;5.15;;
58015;SDS011;43809;52.110;20.964;2023-04-28T03:23:28;8.13;;;4.72;;
58015;SDS011;43809;52.110;20.964;2023-04-28T03:25:29;8.63;;;4.07;;
58015;SDS011;43809;52.110;20.964;2023-04-28T03:27:29;7.15;;;4.10;;
58015;SDS011;43809;52.110;20.964;2023-04-28T03:29:30;6.68;;;3.80;;
58015;SDS011;43809;52.110;20.964;2023-04-28T03:31:30;8.77;;;4.88;;
58015;SDS011;43809;52.110;20.964;2023-04-28T03:33:30;10.40;;;5.78;;
58015;SDS011;43809;52.110;20.964;2023-04-28T03:35:31;10.88;;;5.22;;
58015;SDS011;43809;52.110;20.964;2023-04-28T03:37:31;12.68;;;5.85;;
58015;SDS011;43809;52.110;20.964;2023-04-28T03:39:31;11.50;;;6.10;;
58015;SDS011;43809;52.110;20.964;2023-04-28T03:41:31;8.75;;;5.05;;
58015;SDS011;43809;52.110;20.964;2023-04-28T03:43:32;8.88;;;4.20;;
58015;SDS011;43809;52.110;20.964;2023-04-28T03:45:34;7.57;;;4.13;;
58015;SDS011;43809;52.110;20.964;2023-04-28T03:47:34;8.80;;;4.78;;
58015;SDS011;43809;52.110;20.964;2023-04-28T03:49:35;10.50;;;5.30;;
58015;SDS011;43809;52.110;20.964;2023-04-28T03:51:37;8.00;;;4.78;;
58015;SDS011;43809;52.110;20.964;2023-04-28T03:53:37;7.05;;;4.38;;
58015;SDS011;43809;52.110;20.964;2023-04-28T03:55:38;10.32;;;5.07;;
58015;SDS011;43809;52.110;20.964;2023-04-28T03:57:38;10.52;;;5.45;;
58015;SDS011;43809;52.110;20.964;2023-04-28T03:59:41;8.55;;;4.95;;
58015;SDS011;43809;52.110;20.964;2023-04-28T04:01:42;9.30;;;4.82;;
58015;SDS011;43809;52.110;20.964;2023-04-28T04:03:42;12.68;;;6.30;;
58015;SDS011;43809;52.110;20.964;2023-04-28T04:05:43;16.00;;;7.78;;
58015;SDS011;43809;52.110;20.964;2023-04-28T04:07:43;20.60;;;10.18;;
58015;SDS011;43809;52.110;20.964;2023-04-28T04:09:43;15.38;;;7.93;;
58015;SDS011;43809;52.110;20.964;2023-04-28T04:11:44;17.08;;;8.15;;
58015;SDS011;43809;52.110;20.964;2023-04-28T04:13:44;14.70;;;8.27;;
58015;SDS011;43809;52.110;20.964;2023-04-28T04:15:44;16.40;;;8.10;;
58015;SDS011;43809;52.110;20.964;2023-04-28T04:17:45;16.55;;;8.88;;
58015;SDS011;43809;52.110;20.964;2023-04-28T04:19:45;14.88;;;7.60;;
58015;SDS011;43809;52.110;20.964;2023-04-28T04:24:05;12.48;;;6.70;;
58015;SDS011;43809;52.110;20.964;2023-04-28T04:26:05;11.55;;;6.35;;
58015;SDS011;43809;52.110;20.964;2023-04-28T04:28:06;12.75;;;6.85;;
58015;SDS011;43809;52.110;20.964;2023-04-28T04:30:06;10.93;;;6.80;;
58015;SDS011;43809;52.110;20.964;2023-04-28T04:32:06;15.05;;;7.22;;
58015;SDS011;43809;52.110;20.964;2023-04-28T04:34:06;13.32;;;7.90;;
58015;SDS011;43809;52.110;20.964;2023-04-28T04:36:07;15.55;;;8.88;;
58015;SDS011;43809;52.110;20.964;2023-04-28T04:38:07;15.98;;;8.18;;
58015;SDS011;43809;52.110;20.964;2023-04-28T04:40:07;16.15;;;8.55;;
58015;SDS011;43809;52.110;20.964;2023-04-28T04:42:08;18.80;;;8.43;;
58015;SDS011;43809;52.110;20.964;2023-04-28T04:46:27;14.68;;;9.20;;
58015;SDS011;43809;52.110;20.964;2023-04-28T04:48:32;20.40;;;9.77;;
58015;SDS011;43809;52.110;20.964;2023-04-28T04:50:33;17.02;;;8.77;;
58015;SDS011;43809;52.110;20.964;2023-04-28T04:52:33;16.40;;;8.88;;
58015;SDS011;43809;52.110;20.964;2023-04-28T04:54:33;19.58;;;10.43;;
58015;SDS011;43809;52.110;20.964;2023-04-28T04:56:33;13.23;;;7.88;;
58015;SDS011;43809;52.110;20.964;2023-04-28T04:58:34;18.15;;;8.38;;
58015;SDS011;43809;52.110;20.964;2023-04-28T05:00:34;20.92;;;9.65;;
58015;SDS011;43809;52.110;20.964;2023-04-28T05:02:36;18.73;;;9.50;;
58015;SDS011;43809;52.110;20.964;2023-04-28T05:07:01;15.55;;;8.88;;
58015;SDS011;43809;52.110;20.964;2023-04-28T05:09:02;15.82;;;9.23;;
58015;SDS011;43809;52.110;20.964;2023-04-28T05:11:02;15.10;;;8.38;;
58015;SDS011;43809;52.110;20.964;2023-04-28T05:13:02;18.65;;;10.48;;
58015;SDS011;43809;52.110;20.964;2023-04-28T05:15:03;15.73;;;9.07;;
58015;SDS011;43809;52.110;20.964;2023-04-28T05:17:03;19.33;;;9.98;;
58015;SDS011;43809;52.110;20.964;2023-04-28T05:19:03;15.57;;;8.32;;
58015;SDS011;43809;52.110;20.964;2023-04-28T05:21:06;12.55;;;7.07;;
58015;SDS011;43809;52.110;20.964;2023-04-28T05:23:06;12.77;;;7.38;;
58015;SDS011;43809;52.110;20.964;2023-04-28T05:25:07;11.43;;;6.43;;
58015;SDS011;43809;52.110;20.964;2023-04-28T05:27:07;10.45;;;6.47;;
58015;SDS011;43809;52.110;20.964;2023-04-28T05:29:11;10.48;;;6.35;;
58015;SDS011;43809;52.110;20.964;2023-04-28T05:31:12;13.50;;;7.20;;
58015;SDS011;43809;52.110;20.964;2023-04-28T05:33:12;14.00;;;8.35;;
58015;SDS011;43809;52.110;20.964;2023-04-28T05:35:13;14.45;;;8.93;;
58015;SDS011;43809;52.110;20.964;2023-04-28T05:37:14;16.13;;;8.57;;
58015;SDS011;43809;52.110;20.964;2023-04-28T05:39:14;15.50;;;8.57;;
58015;SDS011;43809;52.110;20.964;2023-04-28T05:41:14;16.90;;;8.98;;
58015;SDS011;43809;52.110;20.964;2023-04-28T05:43:14;15.73;;;9.20;;
58015;SDS011;43809;52.110;20.964;2023-04-28T05:45:15;17.10;;;9.65;;
58015;SDS011;43809;52.110;20.964;2023-04-28T05:47:15;14.10;;;8.13;;
58015;SDS011;43809;52.110;20.964;2023-04-28T05:49:15;15.35;;;8.45;;
58015;SDS011;43809;52.110;20.964;2023-04-28T05:51:15;13.50;;;8.63;;
58015;SDS011;43809;52.110;20.964;2023-04-28T05:53:16;14.40;;;8.75;;
58015;SDS011;43809;52.110;20.964;2023-04-28T05:55:16;16.00;;;8.40;;
58015;SDS011;43809;52.110;20.964;2023-04-28T05:57:16;12.07;;;6.60;;
58015;SDS011;43809;52.110;20.964;2023-04-28T05:59:16;11.40;;;6.70;;
58015;SDS011;43809;52.110;20.964;2023-04-28T06:01:17;10.80;;;7.38;;
58015;SDS011;43809;52.110;20.964;2023-04-28T06:03:17;11.50;;;7.40;;
58015;SDS011;43809;52.110;20.964;2023-04-28T06:05:18;12.82;;;8.02;;
58015;SDS011;43809;52.110;20.964;2023-04-28T06:07:18;12.15;;;7.72;;
58015;SDS011;43809;52.110;20.964;2023-04-28T06:09:18;11.60;;;7.93;;
58015;SDS011;43809;52.110;20.964;2023-04-28T06:11:19;12.20;;;8.32;;
58015;SDS011;43809;52.110;20.964;2023-04-28T06:13:21;15.38;;;8.85;;
58015;SDS011;43809;52.110;20.964;2023-04-28T06:15:21;12.37;;;8.43;;
58015;SDS011;43809;52.110;20.964;2023-04-28T06:17:21;10.30;;;7.67;;
58015;SDS011;43809;52.110;20.964;2023-04-28T06:19:21;9.43;;;6.63;;
58015;SDS011;43809;52.110;20.964;2023-04-28T06:21:22;13.80;;;7.53;;
58015;SDS011;43809;52.110;20.964;2023-04-28T06:23:23;9.80;;;7.10;;
58015;SDS011;43809;52.110;20.964;2023-04-28T06:25:24;9.95;;;6.97;;
58015;SDS011;43809;52.110;20.964;2023-04-28T06:27:24;9.25;;;6.68;;
58015;SDS011;43809;52.110;20.964;2023-04-28T06:29:25;8.27;;;5.00;;
58015;SDS011;43809;52.110;20.964;2023-04-28T06:31:26;7.75;;;5.85;;
58015;SDS011;43809;52.110;20.964;2023-04-28T06:33:27;8.65;;;6.18;;
58015;SDS011;43809;52.110;20.964;2023-04-28T06:35:27;8.03;;;5.90;;
58015;SDS011;43809;52.110;20.964;2023-04-28T06:37:27;8.32;;;5.50;;
58015;SDS011;43809;52.110;20.964;2023-04-28T06:39:28;7.57;;;5.10;;
58015;SDS011;43809;52.110;20.964;2023-04-28T06:41:29;7.07;;;5.90;;
58015;SDS011;43809;52.110;20.964;2023-04-28T06:43:29;7.40;;;5.65;;
58015;SDS011;43809;52.110;20.964;2023-04-28T06:45:29;7.23;;;4.70;;
58015;SDS011;43809;52.110;20.964;2023-04-28T06:47:29;9.90;;;6.07;;
58015;SDS011;43809;52.110;20.964;2023-04-28T06:49:29;6.70;;;4.30;;
58015;SDS011;43809;52.110;20.964;2023-04-28T06:51:30;6.27;;;4.43;;
58015;SDS011;43809;52.110;20.964;2023-04-28T06:53:31;7.45;;;5.72;;
58015;SDS011;43809;52.110;20.964;2023-04-28T06:55:32;6.13;;;4.10;;
58015;SDS011;43809;52.110;20.964;2023-04-28T06:57:33;8.88;;;4.93;;
58015;SDS011;43809;52.110;20.964;2023-04-28T06:59:33;7.23;;;5.63;;
58015;SDS011;43809;52.110;20.964;2023-04-28T07:01:33;7.20;;;4.90;;
58015;SDS011;43809;52.110;20.964;2023-04-28T07:03:34;9.48;;;6.00;;
58015;SDS011;43809;52.110;20.964;2023-04-28T07:05:35;8.93;;;6.20;;
58015;SDS011;43809;52.110;20.964;2023-04-28T07:07:35;6.47;;;5.00;;
58015;SDS011;43809;52.110;20.964;2023-04-28T07:09:40;11.23;;;6.63;;
58015;SDS011;43809;52.110;20.964;2023-04-28T07:11:43;8.90;;;5.70;;
58015;SDS011;43809;52.110;20.964;2023-04-28T07:13:43;7.18;;;5.45;;
58015;SDS011;43809;52.110;20.964;2023-04-28T07:15:45;8.13;;;6.05;;
58015;SDS011;43809;52.110;20.964;2023-04-28T07:17:45;5.93;;;4.80;;
58015;SDS011;43809;52.110;20.964;2023-04-28T07:19:46;12.20;;;6.43;;
58015;SDS011;43809;52.110;20.964;2023-04-28T07:21:48;9.75;;;5.57;;
58015;SDS011;43809;52.110;20.964;2023-04-28T07:23:52;9.03;;;6.03;;
58015;SDS011;43809;52.110;20.964;2023-04-28T07:25:56;9.02;;;5.82;;
58015;SDS011;43809;52.110;20.964;2023-04-28T07:27:56;6.68;;;4.93;;
58015;SDS011;43809;52.110;20.964;2023-04-28T07:29:56;6.88;;;4.40;;
58015;SDS011;43809;52.110;20.964;2023-04-28T07:31:56;6.17;;;4.87;;
58015;SDS011;43809;52.110;20.964;2023-04-28T07:33:56;8.13;;;4.40;;
58015;SDS011;43809;52.110;20.964;2023-04-28T07:35:58;6.40;;;4.47;;
58015;SDS011;43809;52.110;20.964;2023-04-28T07:37:58;6.10;;;4.05;;
58015;SDS011;43809;52.110;20.964;2023-04-28T07:39:58;6.00;;;4.40;;
58015;SDS011;43809;52.110;20.964;2023-04-28T07:41:59;7.60;;;4.53;;
58015;SDS011;43809;52.110;20.964;2023-04-28T07:43:59;7.95;;;4.57;;
58015;SDS011;43809;52.110;20.964;2023-04-28T07:45:59;7.07;;;4.30;;
58015;SDS011;43809;52.110;20.964;2023-04-28T07:47:59;5.20;;;3.10;;
58015;SDS011;43809;52.110;20.964;2023-04-28T07:50:00;4.57;;;3.05;;
58015;SDS011;43809;52.110;20.964;2023-04-28T07:52:04;7.30;;;2.83;;
58015;SDS011;43809;52.110;20.964;2023-04-28T07:54:04;4.03;;;2.63;;
58015;SDS011;43809;52.110;20.964;2023-04-28T07:56:04;2.60;;;2.28;;
58015;SDS011;43809;52.110;20.964;2023-04-28T07:58:04;3.33;;;2.42;;
58015;SDS011;43809;52.110;20.964;2023-04-28T08:00:05;3.27;;;2.30;;
58015;SDS011;43809;52.110;20.964;2023-04-28T08:02:05;3.95;;;2.45;;
58015;SDS011;43809;52.110;20.964;2023-04-28T08:04:07;4.30;;;2.92;;
58015;SDS011;43809;52.110;20.964;2023-04-28T08:06:08;5.45;;;2.58;;
58015;SDS011;43809;52.110;20.964;2023-04-28T08:08:08;3.08;;;2.17;;
58015;SDS011;43809;52.110;20.964;2023-04-28T08:10:08;3.43;;;1.90;;
58015;SDS011;43809;52.110;20.964;2023-04-28T08:12:09;4.50;;;2.83;;
58015;SDS011;43809;52.110;20.964;2023-04-28T08:14:10;2.83;;;2.20;;
58015;SDS011;43809;52.110;20.964;2023-04-28T08:16:10;2.53;;;1.83;;
58015;SDS011;43809;52.110;20.964;2023-04-28T08:18:10;4.25;;;2.53;;
58015;SDS011;43809;52.110;20.964;2023-04-28T08:20:10;4.18;;;1.90;;
58015;SDS011;43809;52.110;20.964;2023-04-28T08:22:11;2.97;;;2.00;;
58015;SDS011;43809;52.110;20.964;2023-04-28T08:24:12;1.52;;;1.25;;
58015;SDS011;43809;52.110;20.964;2023-04-28T08:26:12;3.58;;;2.47;;
58015;SDS011;43809;52.110;20.964;2023-04-28T08:28:13;4.72;;;2.55;;
58015;SDS011;43809;52.110;20.964;2023-04-28T08:30:13;3.85;;;2.25;;
58015;SDS011;43809;52.110;20.964;2023-04-28T08:32:13;3.15;;;2.53;;
58015;SDS011;43809;52.110;20.964;2023-04-28T08:34:13;5.23;;;2.63;;
58015;SDS011;43809;52.110;20.964;2023-04-28T08:36:14;3.83;;;2.60;;
58015;SDS011;43809;52.110;20.964;2023-04-28T08:38:14;5.60;;;2.70;;
58015;SDS011;43809;52.110;20.964;2023-04-28T08:40:16;3.40;;;2.70;;
58015;SDS011;43809;52.110;20.964;2023-04-28T08:42:16;4.53;;;2.50;;
58015;SDS011;43809;52.110;20.964;2023-04-28T08:44:18;5.95;;;2.85;;
58015;SDS011;43809;52.110;20.964;2023-04-28T08:46:18;4.38;;;2.10;;
58015;SDS011;43809;52.110;20.964;2023-04-28T08:48:20;4.15;;;2.55;;
58015;SDS011;43809;52.110;20.964;2023-04-28T08:50:21;3.80;;;2.28;;
58015;SDS011;43809;52.110;20.964;2023-04-28T08:52:24;5.22;;;2.20;;
58015;SDS011;43809;52.110;20.964;2023-04-28T08:54:29;2.45;;;1.80;;
58015;SDS011;43809;52.110;20.964;2023-04-28T08:56:34;2.85;;;1.77;;
58015;SDS011;43809;52.110;20.964;2023-04-28T08:58:34;2.90;;;1.98;;
58015;SDS011;43809;52.110;20.964;2023-04-28T09:00:36;2.57;;;1.80;;
58015;SDS011;43809;52.110;20.964;2023-04-28T09:02:36;3.92;;;1.88;;
58015;SDS011;43809;52.110;20.964;2023-04-28T09:04:37;4.78;;;2.00;;
58015;SDS011;43809;52.110;20.964;2023-04-28T09:06:37;2.72;;;1.90;;
58015;SDS011;43809;52.110;20.964;2023-04-28T09:08:37;3.65;;;2.10;;
58015;SDS011;43809;52.110;20.964;2023-04-28T09:10:38;3.60;;;1.75;;
58015;SDS011;43809;52.110;20.964;2023-04-28T09:12:38;2.85;;;1.80;;
58015;SDS011;43809;52.110;20.964;2023-04-28T09:14:38;3.07;;;2.30;;
58015;SDS011;43809;52.110;20.964;2023-04-28T09:16:39;4.28;;;2.00;;
58015;SDS011;43809;52.110;20.964;2023-04-28T09:18:41;3.70;;;1.70;;
58015;SDS011;43809;52.110;20.964;2023-04-28T09:21:04;3.78;;;1.90;;
58015;SDS011;43809;52.110;20.964;2023-04-28T09:23:17;3.92;;;1.52;;
58015;SDS011;43809;52.110;20.964;2023-04-28T09:25:18;3.35;;;1.90;;
58015;SDS011;43809;52.110;20.964;2023-04-28T09:27:25;3.75;;;2.10;;
58015;SDS011;43809;52.110;20.964;2023-04-28T09:29:25;2.58;;;2.00;;
58015;SDS011;43809;52.110;20.964;2023-04-28T09:31:25;4.30;;;2.30;;
58015;SDS011;43809;52.110;20.964;2023-04-28T09:33:28;6.18;;;2.20;;
58015;SDS011;43809;52.110;20.964;2023-04-28T09:35:38;3.53;;;2.42;;
58015;SDS011;43809;52.110;20.964;2023-04-28T09:37:40;2.97;;;2.00;;
58015;SDS011;43809;52.110;20.964;2023-04-28T09:39:43;3.28;;;2.20;;
58015;SDS011;43809;52.110;20.964;2023-04-28T09:41:43;3.20;;;1.80;;
58015;SDS011;43809;52.110;20.964;2023-04-28T09:43:44;2.55;;;1.83;;
58015;SDS011;43809;52.110;20.964;2023-04-28T09:45:47;1.98;;;1.70;;
58015;SDS011;43809;52.110;20.964;2023-04-28T09:47:48;6.70;;;2.55;;
58015;SDS011;43809;52.110;20.964;2023-04-28T09:49:58;3.15;;;1.70;;
58015;SDS011;43809;52.110;20.964;2023-04-28T09:52:11;1.88;;;1.40;;
58015;SDS011;43809;52.110;20.964;2023-04-28T09:54:11;3.53;;;1.75;;
58015;SDS011;43809;52.110;20.964;2023-04-28T09:56:12;1.83;;;1.63;;
58015;SDS011;43809;52.110;20.964;2023-04-28T09:58:12;6.75;;;1.90;;
58015;SDS011;43809;52.110;20.964;2023-04-28T10:00:13;2.10;;;1.65;;
58015;SDS011;43809;52.110;20.964;2023-04-28T10:02:17;4.63;;;1.80;;
58015;SDS011;43809;52.110;20.964;2023-04-28T10:04:20;2.08;;;1.45;;
58015;SDS011;43809;52.110;20.964;2023-04-28T10:06:20;2.50;;;1.48;;
58015;SDS011;43809;52.110;20.964;2023-04-28T10:08:21;4.90;;;1.83;;
58015;SDS011;43809;52.110;20.964;2023-04-28T10:10:21;1.88;;;1.38;;
58015;SDS011;43809;52.110;20.964;2023-04-28T10:12:26;2.13;;;1.35;;
58015;SDS011;43809;52.110;20.964;2023-04-28T10:14:26;3.10;;;1.75;;
58015;SDS011;43809;52.110;20.964;2023-04-28T10:16:29;10.03;;;2.50;;
58015;SDS011;43809;52.110;20.964;2023-04-28T10:18:31;2.40;;;1.58;;
58015;SDS011;43809;52.110;20.964;2023-04-28T10:20:34;2.10;;;1.40;;
58015;SDS011;43809;52.110;20.964;2023-04-28T10:27:10;3.35;;;1.58;;
58015;SDS011;43809;52.110;20.964;2023-04-28T10:29:10;2.65;;;1.50;;
58015;SDS011;43809;52.110;20.964;2023-04-28T10:31:11;4.65;;;1.77;;
58015;SDS011;43809;52.110;20.964;2023-04-28T10:42:02;2.20;;;1.40;;
58015;SDS011;43809;52.110;20.964;2023-04-28T10:46:22;2.40;;;1.77;;
58015;SDS011;43809;52.110;20.964;2023-04-28T10:48:23;2.95;;;1.75;;
58015;SDS011;43809;52.110;20.964;2023-04-28T10:53:02;6.63;;;1.70;;
58015;SDS011;43809;52.110;20.964;2023-04-28T10:57:22;2.50;;;1.60;;
58015;SDS011;43809;52.110;20.964;2023-04-28T10:59:25;2.33;;;1.80;;
58015;SDS011;43809;52.110;20.964;2023-04-28T11:01:28;3.65;;;1.70;;
58015;SDS011;43809;52.110;20.964;2023-04-28T11:05:30;4.45;;;1.75;;
58015;SDS011;43809;52.110;20.964;2023-04-28T11:07:32;4.78;;;2.20;;
58015;SDS011;43809;52.110;20.964;2023-04-28T11:11:35;2.20;;;1.70;;
58015;SDS011;43809;52.110;20.964;2023-04-28T11:13:38;3.38;;;1.75;;
58015;SDS011;43809;52.110;20.964;2023-04-28T11:15:39;3.88;;;1.90;;
58015;SDS011;43809;52.110;20.964;2023-04-28T11:17:42;2.92;;;2.05;;
58015;SDS011;43809;52.110;20.964;2023-04-28T11:19:43;2.30;;;1.98;;
58015;SDS011;43809;52.110;20.964;2023-04-28T11:21:44;24.67;;;4.00;;
58015;SDS011;43809;52.110;20.964;2023-04-28T11:23:45;4.80;;;2.03;;
58015;SDS011;43809;52.110;20.964;2023-04-28T11:25:55;2.60;;;2.00;;
58015;SDS011;43809;52.110;20.964;2023-04-28T11:28:02;2.65;;;1.70;;
58015;SDS011;43809;52.110;20.964;2023-04-28T11:30:02;1.42;;;1.30;;
58015;SDS011;43809;52.110;20.964;2023-04-28T11:32:04;3.72;;;2.25;;
58015;SDS011;43809;52.110;20.964;2023-04-28T11:34:06;3.90;;;2.08;;
58015;SDS011;43809;52.110;20.964;2023-04-28T11:36:06;7.30;;;2.20;;
58015;SDS011;43809;52.110;20.964;2023-04-28T11:38:06;4.40;;;2.37;;
58015;SDS011;43809;52.110;20.964;2023-04-28T11:40:10;3.33;;;2.50;;
58015;SDS011;43809;52.110;20.964;2023-04-28T11:42:11;4.05;;;2.40;;
58015;SDS011;43809;52.110;20.964;2023-04-28T11:46:20;4.10;;;2.60;;
58015;SDS011;43809;52.110;20.964;2023-04-28T11:48:20;4.25;;;2.25;;
58015;SDS011;43809;52.110;20.964;2023-04-28T11:50:36;2.70;;;1.90;;
58015;SDS011;43809;52.110;20.964;2023-04-28T11:52:46;3.67;;;2.15;;
58015;SDS011;43809;52.110;20.964;2023-04-28T11:54:52;17.52;;;4.05;;
58015;SDS011;43809;52.110;20.964;2023-04-28T11:56:52;11.30;;;4.35;;
58015;SDS011;43809;52.110;20.964;2023-04-28T11:59:02;17.05;;;4.45;;
58015;SDS011;43809;52.110;20.964;2023-04-28T12:01:12;6.70;;;2.90;;
58015;SDS011;43809;52.110;20.964;2023-04-28T12:03:14;12.55;;;4.00;;
58015;SDS011;43809;52.110;20.964;2023-04-28T12:05:14;6.47;;;4.27;;
58015;SDS011;43809;52.110;20.964;2023-04-28T12:07:15;13.73;;;4.90;;
58015;SDS011;43809;52.110;20.964;2023-04-28T12:09:16;4.57;;;2.92;;
58015;SDS011;43809;52.110;20.964;2023-04-28T12:11:17;13.52;;;4.25;;
58015;SDS011;43809;52.110;20.964;2023-04-28T12:13:20;12.77;;;4.25;;
58015;SDS011;43809;52.110;20.964;2023-04-28T12:15:20;5.72;;;3.55;;
58015;SDS011;43809;52.110;20.964;2023-04-28T12:17:27;4.90;;;3.53;;
58015;SDS011;43809;52.110;20.964;2023-04-28T12:19:28;4.90;;;3.10;;
58015;SDS011;43809;52.110;20.964;2023-04-28T12:21:28;3.33;;;2.90;;
58015;SDS011;43809;52.110;20.964;2023-04-28T12:23:29;4.68;;;2.58;;
58015;SDS011;43809;52.110;20.964;2023-04-28T12:25:31;4.38;;;2.72;;
58015;SDS011;43809;52.110;20.964;2023-04-28T12:27:33;6.07;;;2.40;;
58015;SDS011;43809;52.110;20.964;2023-04-28T12:29:37;3.42;;;2.10;;
58015;SDS011;43809;52.110;20.964;2023-04-28T12:31:48;14.30;;;3.95;;
58015;SDS011;43809;52.110;20.964;2023-04-28T12:33:49;7.10;;;3.10;;